Terminal Aerodrome Forecast
Issued by NWS

Home | Current Version | Previous Version | Text Only | Print | Product List | Glossary On
Versions: 1 2 3 4 5 6 7 8 9 10 11 12 13 14 15 16 17 18 19 20 21 22 23 24 25 26 27 28 29 30 31 32 33 34 35 36 37 38 39 40 41 42 43
000
FTUS41 KBOX 232338
TAFACK
TAF
KACK 232338Z 2400/2424 02014KT 3/4SM BR VV002
     FM240400 01008KT 1/2SM FG OVC008
     FM241400 02010KT 1SM BR BKN010
     FM241800 03009KT P6SM SCT010=

USA.gov is the U.S. government's official web portal to all federal, state and local government web resources and services.